Time;durP1;ratioP1;P1;durP2;ratioP2;P2;SDS_P1;SDS_P2;PMS_P1;PMS_P2;Temp;Humidity;BMP_temperature;BMP_pressure;BME280_temperature;BME280_humidity;BME280_pressure;Samples;Min_cycle;Max_cycle;Signal;HPM_P1;HPM_P2
2021/10/27 00:01:33;;;;;;;5.28;4.88;;;12.90;75.30;;;;;;4966645;28;20054;-90
2021/10/27 00:03:59;;;;;;;4.10;3.90;;;12.90;75.40;;;;;;4973605;28;20043;-90
2021/10/27 00:06:26;;;;;;;4.97;4.50;;;12.90;75.40;;;;;;4973664;28;20045;-87
2021/10/27 00:08:52;;;;;;;4.22;4.03;;;12.90;75.40;;;;;;4973572;28;20043;-91
2021/10/27 00:11:19;;;;;;;4.43;4.22;;;12.80;75.30;;;;;;4971807;28;20039;-89
2021/10/27 00:13:46;;;;;;;4.20;3.97;;;12.80;75.40;;;;;;4971946;28;20054;-90
2021/10/27 00:16:12;;;;;;;4.03;3.83;;;12.80;75.40;;;;;;4973023;28;20046;-90
2021/10/27 00:18:38;;;;;;;7.40;4.13;;;12.80;75.40;;;;;;4973531;28;20057;-89
2021/10/27 00:21:05;;;;;;;4.07;3.88;;;12.80;75.40;;;;;;4970121;28;20038;-89
2021/10/27 00:23:31;;;;;;;4.50;4.20;;;12.80;75.50;;;;;;4982535;28;20507;-90
2021/10/27 00:25:57;;;;;;;4.70;4.40;;;12.70;75.40;;;;;;4972218;28;20046;-89
2021/10/27 00:28:23;;;;;;;4.40;4.20;;;12.70;75.40;;;;;;4972789;28;20034;-89
2021/10/27 00:30:49;;;;;;;4.22;4.03;;;12.70;75.50;;;;;;4971030;28;20030;-89
2021/10/27 00:42:36;;;;;;;4.10;3.90;;;12.60;75.50;;;;;;4907315;23;20062;-84
2021/10/27 00:45:02;;;;;;;5.93;3.97;;;12.60;75.50;;;;;;4970554;28;20038;-83
2021/10/27 00:47:28;;;;;;;4.40;4.10;;;12.60;75.60;;;;;;4972592;28;20031;-85
2021/10/27 00:49:54;;;;;;;3.97;3.78;;;12.60;75.60;;;;;;4971527;28;20038;-83
2021/10/27 00:52:21;;;;;;;3.75;3.55;;;12.60;76.40;;;;;;4969156;28;20031;-84
2021/10/27 00:54:48;;;;;;;4.03;3.83;;;12.50;75.50;;;;;;4970570;28;20031;-84
2021/10/27 00:57:15;;;;;;;3.90;3.70;;;12.50;75.50;;;;;;4972448;28;20470;-84
2021/10/27 00:59:43;;;;;;;4.20;4.00;;;12.50;75.50;;;;;;4970512;28;20034;-84
2021/10/27 01:02:10;;;;;;;4.30;4.07;;;12.50;75.60;;;;;;4954854;28;20039;-84
2021/10/27 01:04:36;;;;;;;4.00;3.80;;;12.50;75.60;;;;;;4967773;28;20042;-84
2021/10/27 01:07:02;;;;;;;4.43;4.13;;;12.50;75.60;;;;;;4972246;28;20038;-84
2021/10/27 01:09:29;;;;;;;3.80;3.60;;;12.40;75.50;;;;;;4966708;28;20041;-84
2021/10/27 01:11:55;;;;;;;3.85;3.65;;;12.40;75.50;;;;;;4971138;28;20046;-83
2021/10/27 01:14:21;;;;;;;4.43;4.13;;;12.40;75.60;;;;;;4969912;28;20061;-84
2021/10/27 01:16:47;;;;;;;4.15;3.95;;;12.40;75.50;;;;;;4955162;28;20043;-84
2021/10/27 01:19:14;;;;;;;6.60;5.40;;;12.40;75.50;;;;;;4971970;28;20026;-84
2021/10/27 01:21:41;;;;;;;4.57;4.28;;;12.40;75.50;;;;;;4971299;28;20039;-84
2021/10/27 01:24:07;;;;;;;4.18;3.97;;;12.40;75.50;;;;;;4971790;28;20467;-84
2021/10/27 01:26:34;;;;;;;4.22;3.92;;;12.40;75.50;;;;;;4968877;28;20054;-84
2021/10/27 01:29:00;;;;;;;4.80;4.40;;;12.30;75.60;;;;;;4969134;28;20035;-84
2021/10/27 01:31:26;;;;;;;4.60;4.10;;;12.30;75.60;;;;;;4966921;28;20039;-84
2021/10/27 01:33:52;;;;;;;4.47;4.25;;;12.30;75.60;;;;;;4969893;28;20509;-83
2021/10/27 01:36:19;;;;;;;4.72;4.43;;;12.30;75.60;;;;;;4971506;28;20039;-84
2021/10/27 01:38:46;;;;;;;4.70;4.43;;;12.30;75.60;;;;;;4970467;28;20039;-84
2021/10/27 01:41:13;;;;;;;4.40;4.20;;;12.20;75.60;;;;;;4968875;28;20050;-84
2021/10/27 01:43:53;;;;;;;4.18;3.97;;;12.20;75.60;;;;;;4968643;28;20051;-84
2021/10/27 01:46:35;;;;;;;4.45;4.15;;;12.20;75.60;;;;;;4966251;28;20034;-84
2021/10/27 01:49:06;;;;;;;4.00;3.80;;;12.20;75.60;;;;;;4970184;28;20506;-84
2021/10/27 01:51:33;;;;;;;4.78;4.40;;;12.20;75.70;;;;;;4971922;28;20057;-84
2021/10/27 01:53:59;;;;;;;4.00;3.70;;;12.10;75.60;;;;;;4969855;28;20158;-84
2021/10/27 01:56:25;;;;;;;5.00;4.60;;;12.10;75.50;;;;;;4972334;28;20043;-84
2021/10/27 01:58:52;;;;;;;4.10;3.90;;;12.10;75.60;;;;;;4972350;28;20035;-84
2021/10/27 02:01:18;;;;;;;3.75;3.55;;;12.10;75.70;;;;;;4964226;28;20039;-84
2021/10/27 02:03:45;;;;;;;4.20;3.95;;;12.10;75.70;;;;;;4960612;28;20065;-84
2021/10/27 02:06:11;;;;;;;3.80;3.60;;;12.00;75.60;;;;;;4964240;28;20047;-84
2021/10/27 02:08:37;;;;;;;4.30;4.00;;;12.00;75.70;;;;;;4969225;28;20061;-84
2021/10/27 02:11:03;;;;;;;4.10;3.78;;;12.00;75.70;;;;;;4969132;28;20031;-84
2021/10/27 02:13:30;;;;;;;3.83;3.63;;;12.00;75.70;;;;;;4968059;28;20043;-84
2021/10/27 02:15:56;;;;;;;3.88;3.67;;;12.00;75.70;;;;;;4967531;28;20049;-84
2021/10/27 02:18:22;;;;;;;4.53;4.22;;;11.90;75.70;;;;;;4966944;28;20051;-84
2021/10/27 02:20:48;;;;;;;4.75;4.45;;;11.90;75.70;;;;;;4970204;28;20042;-84
2021/10/27 02:23:14;;;;;;;5.20;3.97;;;11.90;75.70;;;;;;4968995;28;20042;-84
2021/10/27 02:25:41;;;;;;;3.88;3.67;;;11.90;75.70;;;;;;4969305;28;20043;-84
2021/10/27 02:28:07;;;;;;;4.15;3.95;;;11.90;75.70;;;;;;4969730;28;20027;-84
2021/10/27 02:30:34;;;;;;;4.40;4.07;;;11.90;75.70;;;;;;4966195;28;20066;-84
2021/10/27 02:33:03;;;;;;;4.10;3.90;;;11.90;75.70;;;;;;4968586;28;20038;-84
2021/10/27 02:35:29;;;;;;;3.92;3.72;;;11.80;75.60;;;;;;4968162;28;20031;-84
2021/10/27 02:37:55;;;;;;;3.70;3.50;;;11.90;75.80;;;;;;4971304;28;20386;-84
2021/10/27 02:40:22;;;;;;;3.80;3.60;;;11.80;75.70;;;;;;4954810;28;20372;-84
2021/10/27 02:42:48;;;;;;;3.70;3.50;;;11.70;75.70;;;;;;4956101;28;20042;-84
2021/10/27 02:45:14;;;;;;;4.68;4.22;;;11.70;75.80;;;;;;4972704;28;20033;-83
2021/10/27 02:47:44;;;;;;;4.55;4.15;;;11.60;75.80;;;;;;4955805;28;20034;-84
2021/10/27 02:50:12;;;;;;;3.90;3.60;;;11.50;75.80;;;;;;4970316;28;20035;-83
2021/10/27 02:52:40;;;;;;;4.00;3.80;;;11.50;76.00;;;;;;4971020;28;20030;-84
2021/10/27 02:55:07;;;;;;;3.50;3.30;;;11.40;76.10;;;;;;4970667;28;20490;-84
2021/10/27 02:57:34;;;;;;;4.05;3.75;;;11.30;76.10;;;;;;4973573;28;20069;-84
2021/10/27 03:00:00;;;;;;;5.68;4.57;;;11.20;76.20;;;;;;4972766;28;20030;-83
2021/10/27 03:02:26;;;;;;;3.47;3.33;;;11.20;76.30;;;;;;4974796;28;20055;-85
2021/10/27 03:04:52;;;;;;;3.40;3.25;;;11.20;76.30;;;;;;4973512;28;20046;-84
2021/10/27 03:07:18;;;;;;;3.78;3.47;;;11.10;76.30;;;;;;4974346;28;20026;-84
2021/10/27 03:09:44;;;;;;;3.42;3.25;;;11.10;76.30;;;;;;4971046;28;20042;-84
2021/10/27 03:12:11;;;;;;;4.40;4.10;;;11.10;76.30;;;;;;4974594;28;20023;-84
2021/10/27 03:14:37;;;;;;;4.03;3.83;;;11.00;76.30;;;;;;4974569;28;20477;-84
2021/10/27 03:17:03;;;;;;;4.75;4.45;;;11.00;76.40;;;;;;4953550;28;20042;-84
2021/10/27 03:19:29;;;;;;;4.20;3.90;;;11.00;76.50;;;;;;4971015;28;20035;-84
2021/10/27 03:21:55;;;;;;;4.05;3.85;;;11.00;76.50;;;;;;4966609;28;20042;-84
2021/10/27 03:24:21;;;;;;;4.00;3.70;;;11.00;76.50;;;;;;4971745;28;20031;-84
2021/10/27 03:26:47;;;;;;;3.80;3.60;;;11.00;76.50;;;;;;4975143;28;20046;-84
2021/10/27 03:29:13;;;;;;;4.03;3.83;;;10.90;76.50;;;;;;4975523;28;20026;-86
2021/10/27 03:31:39;;;;;;;4.30;4.00;;;10.90;77.20;;;;;;4985195;28;20035;-87
2021/10/27 03:34:06;;;;;;;3.70;3.50;;;10.90;76.40;;;;;;4974483;28;20073;-86
2021/10/27 03:36:32;;;;;;;3.90;3.70;;;10.90;76.50;;;;;;4956798;28;20039;-86
2021/10/27 03:38:58;;;;;;;4.18;3.97;;;10.80;76.50;;;;;;4954263;28;20043;-87
2021/10/27 03:41:25;;;;;;;4.03;3.83;;;10.80;76.50;;;;;;4943423;29;20059;-87
2021/10/27 03:43:51;;;;;;;3.72;3.53;;;10.80;76.60;;;;;;4970668;28;20050;-86
2021/10/27 03:46:17;;;;;;;3.90;3.70;;;10.80;76.60;;;;;;4969148;28;20038;-86
2021/10/27 03:48:44;;;;;;;4.10;3.80;;;10.80;76.60;;;;;;4967901;28;20472;-87
2021/10/27 03:51:13;;;;;;;3.80;3.60;;;10.80;76.70;;;;;;4971797;28;20035;-86
2021/10/27 03:53:40;;;;;;;3.85;3.65;;;10.80;76.70;;;;;;4971456;28;20034;-86
2021/10/27 03:56:06;;;;;;;3.95;3.75;;;10.80;76.70;;;;;;4972042;28;20042;-87
2021/10/27 03:58:33;;;;;;;3.97;3.78;;;10.70;76.60;;;;;;4969570;28;20480;-87
2021/10/27 04:01:00;;;;;;;4.28;4.07;;;10.70;76.60;;;;;;4971022;28;20055;-86
2021/10/27 04:03:26;;;;;;;3.85;3.65;;;10.70;76.60;;;;;;4956368;28;20046;-87
2021/10/27 04:05:53;;;;;;;4.32;4.03;;;10.70;76.60;;;;;;4972819;28;20054;-86
2021/10/27 04:08:19;;;;;;;4.13;3.90;;;10.70;76.60;;;;;;4973590;28;20039;-88
2021/10/27 04:10:45;;;;;;;4.00;3.80;;;10.60;76.60;;;;;;4970653;28;20039;-82
2021/10/27 04:13:15;;;;;;;4.00;3.80;;;10.60;76.70;;;;;;4970360;28;20051;-82
2021/10/27 04:15:41;;;;;;;4.07;3.88;;;10.60;76.70;;;;;;4972158;28;20391;-82
2021/10/27 04:18:07;;;;;;;4.03;3.80;;;10.70;77.50;;;;;;4972055;28;20034;-82
2021/10/27 04:20:33;;;;;;;4.30;4.10;;;10.70;76.70;;;;;;4972449;28;20034;-82
2021/10/27 04:23:00;;;;;;;4.32;4.05;;;10.70;76.70;;;;;;4973136;28;20042;-82
2021/10/27 04:25:26;;;;;;;4.13;3.92;;;10.70;76.60;;;;;;4972664;28;20045;-82
2021/10/27 04:27:52;;;;;;;4.15;3.85;;;10.70;76.50;;;;;;4971393;28;20514;-82
2021/10/27 04:30:18;;;;;;;4.05;3.85;;;10.70;76.50;;;;;;4970970;28;20026;-82
2021/10/27 04:32:44;;;;;;;4.07;3.88;;;10.70;76.50;;;;;;4972665;28;20022;-82
2021/10/27 04:35:10;;;;;;;3.90;3.70;;;10.70;76.50;;;;;;4969949;28;20042;-82
2021/10/27 04:37:41;;;;;;;4.65;4.35;;;10.70;76.40;;;;;;4969236;28;20054;-82
2021/10/27 04:40:09;;;;;;;4.90;4.55;;;10.70;76.40;;;;;;4969172;28;20030;-82
2021/10/27 04:42:35;;;;;;;3.83;3.63;;;10.70;76.40;;;;;;4969194;28;20050;-82
2021/10/27 04:45:03;;;;;;;3.97;3.78;;;10.70;76.50;;;;;;4970063;28;20494;-82
2021/10/27 04:47:29;;;;;;;3.50;3.38;;;10.60;76.50;;;;;;4971553;28;20065;-82
2021/10/27 04:49:55;;;;;;;4.20;4.00;;;10.60;76.80;;;;;;4971904;28;20498;-82
2021/10/27 04:52:21;;;;;;;4.07;3.88;;;10.50;76.70;;;;;;4971681;28;20054;-82
2021/10/27 04:54:47;;;;;;;4.35;4.15;;;10.50;76.80;;;;;;4973385;28;20035;-82
2021/10/27 04:57:13;;;;;;;4.82;4.47;;;10.50;76.80;;;;;;4972084;28;20046;-82
2021/10/27 04:59:43;;;;;;;4.00;3.80;;;10.50;76.70;;;;;;4971462;28;20042;-82
2021/10/27 05:02:09;;;;;;;4.88;4.57;;;10.60;76.80;;;;;;4971452;28;20488;-82
2021/10/27 05:04:36;;;;;;;4.35;3.95;;;10.50;76.70;;;;;;4970516;28;20042;-82
2021/10/27 05:07:03;;;;;;;3.78;3.58;;;10.60;76.70;;;;;;4973315;28;20042;-82
2021/10/27 05:09:29;;;;;;;4.20;3.83;;;10.60;76.70;;;;;;4953040;28;20039;-82
2021/10/27 05:11:55;;;;;;;4.95;4.63;;;10.60;76.70;;;;;;4970585;28;20039;-82
2021/10/27 05:14:21;;;;;;;3.90;3.70;;;10.60;76.60;;;;;;4972981;28;20387;-82
2021/10/27 05:16:47;;;;;;;3.60;3.40;;;10.60;76.50;;;;;;4971851;28;20479;-83
2021/10/27 05:19:13;;;;;;;3.92;3.72;;;10.50;76.50;;;;;;4967295;28;20031;-82
2021/10/27 05:21:39;;;;;;;4.22;4.00;;;10.50;76.70;;;;;;4972605;28;20073;-82
2021/10/27 05:24:05;;;;;;;4.03;3.72;;;10.50;76.80;;;;;;4971629;28;20026;-82
2021/10/27 05:26:32;;;;;;;4.13;3.92;;;10.50;76.80;;;;;;4952868;28;20058;-82
2021/10/27 05:28:58;;;;;;;3.88;3.67;;;10.40;76.80;;;;;;4971966;28;20026;-82
2021/10/27 05:31:24;;;;;;;4.10;3.80;;;10.30;76.80;;;;;;4970373;28;20058;-82
2021/10/27 05:33:50;;;;;;;4.30;4.10;;;10.30;76.90;;;;;;4969345;28;20026;-82
2021/10/27 05:36:17;;;;;;;3.65;3.45;;;10.30;76.90;;;;;;4972547;28;20035;-82
2021/10/27 05:38:43;;;;;;;4.05;3.85;;;10.30;76.90;;;;;;4971268;28;20042;-82
2021/10/27 05:41:09;;;;;;;4.47;4.18;;;10.20;77.00;;;;;;4971123;28;20038;-82
2021/10/27 05:43:36;;;;;;;4.28;4.00;;;10.20;77.00;;;;;;4971623;28;20395;-82
2021/10/27 05:46:03;;;;;;;4.28;4.07;;;10.10;77.00;;;;;;4971691;28;20042;-81
2021/10/27 05:48:34;;;;;;;4.35;4.15;;;10.10;77.10;;;;;;4976117;28;20042;-82
2021/10/27 05:56:19;;;;;;;4.22;4.03;;;10.10;76.90;;;;;;4972579;28;20068;-82
2021/10/27 05:58:46;;;;;;;3.72;3.53;;;10.10;76.90;;;;;;4971908;28;20050;-81
2021/10/27 06:01:12;;;;;;;4.57;4.28;;;10.10;76.90;;;;;;4969701;28;20055;-80
2021/10/27 06:03:39;;;;;;;4.72;4.43;;;10.00;77.00;;;;;;4967390;28;20038;-80
2021/10/27 06:06:05;;;;;;;4.57;4.38;;;10.00;77.20;;;;;;4969123;28;20502;-83
2021/10/27 06:08:31;;;;;;;5.22;4.93;;;9.90;77.10;;;;;;4958374;28;20050;-83
2021/10/27 06:11:08;;;;;;;4.43;4.22;;;10.00;77.20;;;;;;4970075;28;20493;-83
2021/10/27 06:13:36;;;;;;;4.28;4.07;;;10.00;77.20;;;;;;4972483;28;20043;-83
2021/10/27 06:16:02;;;;;;;4.47;4.13;;;10.00;77.10;;;;;;4970230;28;20035;-84
2021/10/27 06:18:28;;;;;;;5.03;4.72;;;10.00;77.10;;;;;;4987552;28;20057;-85
2021/10/27 06:20:55;;;;;;;4.20;4.00;;;10.00;77.10;;;;;;4978050;28;20030;-84
2021/10/27 06:23:22;;;;;;;4.60;4.40;;;10.00;77.20;;;;;;4975442;28;20045;-86
2021/10/27 06:25:49;;;;;;;4.47;4.28;;;10.00;77.10;;;;;;4959478;28;20041;-84
2021/10/27 06:28:21;;;;;;;4.38;4.18;;;10.00;77.00;;;;;;4974675;28;20043;-84
2021/10/27 06:46:41;;;;;;;4.95;4.65;;;10.00;77.10;;;;;;4971388;28;20042;-84
2021/10/27 06:49:07;;;;;;;4.50;4.30;;;9.90;77.20;;;;;;4972260;28;20035;-83
2021/10/27 06:51:34;;;;;;;4.60;4.40;;;9.80;77.20;;;;;;4974316;28;20356;-83
2021/10/27 06:54:01;;;;;;;4.95;4.65;;;9.80;77.30;;;;;;4971163;28;20475;-82
2021/10/27 06:56:27;;;;;;;5.43;5.13;;;9.80;77.30;;;;;;4974327;28;20031;-85
2021/10/27 07:17:47;;;;;;;5.85;5.55;;;10.00;77.20;;;;;;4935166;29;20604;-82
2021/10/27 07:20:13;;;;;;;7.25;6.63;;;9.90;77.10;;;;;;4934012;29;20043;-83
2021/10/27 07:22:40;;;;;;;7.03;6.65;;;10.00;77.10;;;;;;4935203;29;20070;-86
2021/10/27 07:25:08;;;;;;;6.57;5.75;;;10.00;77.20;;;;;;4934773;29;20028;-86
2021/10/27 07:27:34;;;;;;;7.30;6.90;;;10.10;77.10;;;;;;4953944;28;20051;-84
2021/10/27 07:30:01;;;;;;;6.40;6.07;;;10.10;76.90;;;;;;4932605;29;20036;-82
2021/10/27 07:32:28;;;;;;;7.10;6.60;;;10.10;76.90;;;;;;4935659;29;20427;-79
2021/10/27 07:35:03;;;;;;;7.13;6.55;;;10.20;76.90;;;;;;4915179;29;20605;-85
2021/10/27 07:42:57;;;;;;;5.13;4.93;;;10.30;76.80;;;;;;4975340;28;20114;-83
2021/10/27 07:45:26;;;;;;;5.50;5.20;;;10.20;76.80;;;;;;4969987;28;20034;-82
2021/10/27 07:47:53;;;;;;;4.93;4.72;;;10.20;76.80;;;;;;4970697;28;20322;-83
2021/10/27 07:50:20;;;;;;;4.80;4.60;;;10.30;76.90;;;;;;4972449;28;20046;-86
2021/10/27 07:52:47;;;;;;;5.70;5.40;;;10.30;77.00;;;;;;4971991;28;20031;-85
2021/10/27 07:55:13;;;;;;;6.75;5.72;;;10.30;77.00;;;;;;4970178;28;20063;-85
2021/10/27 07:57:40;;;;;;;6.03;5.63;;;10.30;76.90;;;;;;4973391;28;20502;-83
2021/10/27 08:00:06;;;;;;;5.20;4.93;;;10.40;76.90;;;;;;4968543;28;20038;-83
2021/10/27 08:02:32;;;;;;;4.00;3.80;;;10.40;76.80;;;;;;4972765;28;20042;-81
2021/10/27 08:04:59;;;;;;;4.40;4.10;;;10.50;76.80;;;;;;4952651;28;20043;-83
2021/10/27 08:07:25;;;;;;;5.85;5.32;;;10.50;76.80;;;;;;4971592;28;20046;-84
2021/10/27 08:09:51;;;;;;;4.75;4.55;;;10.50;76.70;;;;;;4973187;28;20031;-84
2021/10/27 08:12:17;;;;;;;4.43;4.15;;;10.60;76.80;;;;;;4972532;28;20030;-84
2021/10/27 08:14:43;;;;;;;3.80;3.60;;;10.60;76.70;;;;;;4970113;28;20031;-84
2021/10/27 08:17:09;;;;;;;4.30;4.10;;;10.70;76.60;;;;;;4972055;28;20400;-83
2021/10/27 08:19:36;;;;;;;4.22;4.03;;;10.70;76.70;;;;;;4970046;28;20038;-85
2021/10/27 08:22:05;;;;;;;4.13;3.92;;;10.70;76.60;;;;;;4970750;28;20526;-84
2021/10/27 08:24:31;;;;;;;3.83;3.63;;;10.80;76.60;;;;;;4969505;28;20478;-85
2021/10/27 08:27:06;;;;;;;3.80;3.60;;;10.80;76.60;;;;;;4971774;28;20027;-85
2021/10/27 08:29:37;;;;;;;4.18;3.92;;;10.80;76.50;;;;;;4973953;28;20043;-84
2021/10/27 08:32:14;;;;;;;;;;;10.90;76.60;;;;;;4979516;28;20035;-85
2021/10/27 08:34:42;;;;;;;4.50;4.13;;;10.90;76.50;;;;;;4970055;28;20255;-83
2021/10/27 08:37:08;;;;;;;3.70;3.50;;;10.90;76.40;;;;;;4970534;28;20518;-82
2021/10/27 08:39:35;;;;;;;3.80;3.60;;;11.00;76.50;;;;;;4973413;28;20027;-90
2021/10/27 08:42:05;;;;;;;4.50;4.30;;;11.00;76.60;;;;;;4969688;28;20042;-87
2021/10/27 08:44:32;;;;;;;4.20;3.90;;;11.10;76.80;;;;;;4972959;28;20049;-85
2021/10/27 08:46:59;;;;;;;4.82;4.53;;;11.30;76.70;;;;;;4967777;28;20513;-86
2021/10/27 08:49:25;;;;;;;4.55;4.25;;;11.60;76.60;;;;;;4969824;28;20031;-86
2021/10/27 08:51:51;;;;;;;4.53;4.32;;;11.80;76.30;;;;;;4970311;28;20038;-85
2021/10/27 08:54:18;;;;;;;4.00;3.80;;;12.00;76.00;;;;;;4977221;28;20042;-86
2021/10/27 08:56:45;;;;;;;4.60;4.30;;;12.30;75.90;;;;;;4969882;28;20050;-85
2021/10/27 08:59:22;;;;;;;4.78;4.43;;;12.50;75.60;;;;;;4971422;28;20038;-86
2021/10/27 09:02:10;;;;;;;4.30;4.10;;;12.70;75.50;;;;;;4968665;28;20522;-86
2021/10/27 09:08:13;;;;;;;4.15;3.85;;;13.10;75.50;;;;;;4969287;28;20395;-86
2021/10/27 09:34:05;;;;;;;5.15;4.80;;;14.40;75.50;;;;;;4916243;29;20059;-82
2021/10/27 10:04:31;;;;;;;4.90;4.60;;;14.20;75.50;;;;;;4943120;28;20047;-85
2021/10/27 10:07:02;;;;;;;4.70;4.50;;;14.20;75.70;;;;;;4966396;28;20053;-84
2021/10/27 10:09:29;;;;;;;5.65;5.18;;;14.10;75.70;;;;;;4960823;28;20044;-86
2021/10/27 10:11:56;;;;;;;5.10;4.85;;;14.10;75.90;;;;;;4949432;28;20039;-84
2021/10/27 10:14:22;;;;;;;5.55;5.03;;;14.10;75.90;;;;;;4953062;28;20031;-84
2021/10/27 10:16:53;;;;;;;6.38;5.85;;;14.10;75.90;;;;;;4955134;28;20039;-89
2021/10/27 10:19:24;;;;;;;5.68;5.28;;;14.10;75.90;;;;;;4954570;28;20038;-87
2021/10/27 10:21:51;;;;;;;;;;;14.10;75.80;;;;;;4948931;28;20046;-87
2021/10/27 10:24:18;;;;;;;5.40;4.95;;;14.20;76.50;;;;;;4966551;28;19917;-87
2021/10/27 10:26:49;;;;;;;6.93;6.22;;;14.30;75.70;;;;;;4967123;28;20131;-87
2021/10/27 10:29:43;;;;;;;6.38;5.85;;;14.30;75.70;;;;;;4948361;29;20054;-86
2021/10/27 10:32:19;;;;;;;5.40;5.00;;;14.40;75.60;;;;;;4969998;28;20039;-82
2021/10/27 10:34:48;;;;;;;5.53;5.13;;;14.50;75.60;;;;;;4967801;28;20047;-88
2021/10/27 10:38:05;;;;;;;5.60;5.22;;;14.50;75.50;;;;;;4969403;28;20034;-85
2021/10/27 10:40:38;;;;;;;6.38;5.10;;;14.60;75.50;;;;;;4966835;28;20501;-83
2021/10/27 11:27:23;;;;;;;4.60;4.40;;;16.40;73.30;;;;;;4978816;28;20031;-82
2021/10/27 11:40:46;;;;;;;5.22;4.93;;;16.70;72.50;;;;;;4981158;28;20045;-76
2021/10/27 11:45:59;;;;;;;4.45;4.25;;;16.70;72.40;;;;;;4970792;28;20050;-80
2021/10/27 11:51:16;;;;;;;4.60;4.40;;;16.90;72.30;;;;;;4949821;28;20050;-89
2021/10/27 11:53:45;;;;;;;5.05;4.75;;;16.90;72.00;;;;;;4959346;28;20199;-79
2021/10/27 11:56:22;;;;;;;4.25;4.05;;;16.90;71.90;;;;;;4937105;29;20539;-79
2021/10/27 11:58:51;;;;;;;4.43;4.22;;;17.00;71.60;;;;;;4951298;28;20047;-79
2021/10/27 12:01:43;;;;;;;4.47;4.28;;;17.10;71.60;;;;;;4949575;28;20058;-79
2021/10/27 12:04:15;;;;;;;4.80;4.50;;;17.10;71.40;;;;;;4950461;28;20055;-78
2021/10/27 12:09:28;;;;;;;4.80;4.60;;;17.20;71.10;;;;;;4954039;28;20439;-79
2021/10/27 12:18:17;;;;;;;4.78;4.57;;;17.30;70.60;;;;;;4912689;29;20404;-78
2021/10/27 12:20:53;;;;;;;4.93;4.68;;;17.40;70.70;;;;;;4910016;29;20044;-78
2021/10/27 12:23:25;;;;;;;6.07;5.53;;;17.40;70.40;;;;;;4899929;29;20060;-78
2021/10/27 12:25:53;;;;;;;5.13;4.93;;;17.50;70.30;;;;;;4909462;29;20484;-79
2021/10/27 12:28:31;;;;;;;5.13;4.93;;;17.50;70.20;;;;;;4906256;29;20048;-78
2021/10/27 12:30:57;;;;;;;4.68;4.47;;;17.50;70.20;;;;;;4892904;29;20036;-82
2021/10/27 12:33:38;;;;;;;5.10;4.90;;;17.60;70.30;;;;;;4898158;29;20431;-75
2021/10/27 12:36:15;;;;;;;5.60;5.30;;;17.60;70.10;;;;;;4907549;29;20044;-75
2021/10/27 12:38:43;;;;;;;5.15;4.95;;;17.70;69.90;;;;;;4914497;29;20036;-74
2021/10/27 12:41:15;;;;;;;5.15;4.95;;;17.70;69.70;;;;;;4910515;29;20347;-75
2021/10/27 12:43:42;;;;;;;5.65;5.35;;;17.80;69.80;;;;;;4907759;29;20052;-75
2021/10/27 12:46:21;;;;;;;5.30;4.88;;;17.80;69.60;;;;;;4905143;28;20039;-75
2021/10/27 12:48:47;;;;;;;5.43;5.15;;;17.80;69.60;;;;;;4903852;29;20555;-75
2021/10/27 12:51:13;;;;;;;6.15;5.85;;;17.80;69.60;;;;;;4917929;29;20040;-75
2021/10/27 12:53:43;;;;;;;6.20;5.90;;;17.90;69.50;;;;;;4912138;29;20052;-76
2021/10/27 12:56:17;;;;;;;5.22;5.03;;;17.90;69.40;;;;;;4972753;28;20407;-75
2021/10/27 12:58:54;;;;;;;5.95;5.45;;;18.00;69.50;;;;;;4969449;28;20038;-75
2021/10/27 13:01:47;;;;;;;6.20;5.90;;;18.00;69.30;;;;;;4970241;28;20057;-75
2021/10/27 13:11:52;;;;;;;5.68;5.43;;;18.00;68.80;;;;;;4966640;28;20031;-74
2021/10/27 13:30:49;;;;;;;5.90;5.60;;;18.00;67.50;;;;;;4975655;28;20030;-75
2021/10/27 13:33:17;;;;;;;5.97;5.68;;;18.00;67.20;;;;;;4966706;28;20035;-75
2021/10/27 13:35:43;;;;;;;5.82;5.53;;;18.00;67.30;;;;;;4971358;28;20039;-75
2021/10/27 13:38:10;;;;;;;5.88;5.57;;;18.00;67.00;;;;;;4970441;28;20037;-75
2021/10/27 13:40:40;;;;;;;5.95;5.65;;;18.00;67.00;;;;;;4950300;28;20043;-75
2021/10/27 13:43:16;;;;;;;5.85;5.55;;;17.90;66.90;;;;;;4968893;28;20039;-75
2021/10/27 13:46:33;;;;;;;6.25;5.95;;;17.90;66.80;;;;;;4966759;28;20061;-75
2021/10/27 14:08:02;;;;;;;6.00;5.68;;;18.10;66.20;;;;;;4936150;29;20190;-88
2021/10/27 15:21:48;;;;;;;6.00;5.70;;;18.00;65.60;;;;;;4975252;28;20042;-84
2021/10/27 15:24:36;;;;;;;5.20;5.00;;;18.00;65.50;;;;;;4970844;28;20045;-84
2021/10/27 15:30:01;;;;;;;6.93;6.63;;;17.90;65.30;;;;;;4977002;28;20042;-84
2021/10/27 15:51:21;;;;;;;5.75;5.45;;;17.90;65.50;;;;;;4973355;28;20065;-86
2021/10/27 15:53:47;;;;;;;6.35;6.05;;;17.90;65.40;;;;;;4969554;28;20502;-85
2021/10/27 15:56:13;;;;;;;6.10;5.80;;;17.80;65.40;;;;;;4971846;28;20054;-84
2021/10/27 15:58:39;;;;;;;6.45;6.15;;;17.80;65.40;;;;;;4970137;28;20069;-85
2021/10/27 16:01:05;;;;;;;6.25;5.95;;;17.80;65.50;;;;;;4970645;28;20199;-84
2021/10/27 16:03:32;;;;;;;6.53;6.22;;;17.80;65.50;;;;;;4971675;28;20414;-86
2021/10/27 16:05:58;;;;;;;5.95;5.65;;;17.80;65.50;;;;;;4970425;28;20775;-84
2021/10/27 16:08:26;;;;;;;6.57;6.28;;;17.70;65.50;;;;;;4973930;28;20042;-85
2021/10/27 16:10:53;;;;;;;6.15;5.85;;;17.70;65.50;;;;;;4970101;28;20476;-83
2021/10/27 16:13:19;;;;;;;6.40;6.10;;;17.70;65.60;;;;;;4970577;28;20763;-84
2021/10/27 16:15:57;;;;;;;6.45;6.15;;;17.70;65.60;;;;;;4982871;28;20046;-84
2021/10/27 16:18:25;;;;;;;5.97;5.68;;;17.70;65.70;;;;;;4971350;28;20483;-84
2021/10/27 16:20:51;;;;;;;6.25;5.95;;;17.70;65.80;;;;;;4969476;28;20038;-85
2021/10/27 16:23:19;;;;;;;6.28;5.97;;;17.60;65.80;;;;;;4969865;28;20046;-83
2021/10/27 16:25:45;;;;;;;6.65;6.25;;;17.60;65.90;;;;;;4969860;28;20030;-85
2021/10/27 16:28:11;;;;;;;6.30;6.00;;;17.60;66.00;;;;;;4968752;28;20049;-84
2021/10/27 16:30:37;;;;;;;6.30;5.80;;;17.50;65.90;;;;;;4975470;28;20045;-91
2021/10/27 16:33:03;;;;;;;5.47;5.25;;;17.50;66.10;;;;;;4979684;28;20054;-91
2021/10/27 16:35:30;;;;;;;5.78;5.47;;;17.40;66.10;;;;;;4972598;28;20030;-91
2021/10/27 16:37:56;;;;;;;5.80;5.40;;;17.40;66.20;;;;;;4973219;28;20030;-92
2021/10/27 16:40:22;;;;;;;5.72;5.43;;;17.40;66.20;;;;;;4973534;28;20415;-89
2021/10/27 16:42:49;;;;;;;5.50;5.20;;;17.30;66.30;;;;;;4970377;28;20050;-89
2021/10/27 16:45:18;;;;;;;5.65;5.35;;;17.30;66.40;;;;;;4969958;28;20054;-86
2021/10/27 16:47:45;;;;;;;5.65;5.35;;;17.20;66.40;;;;;;4971262;28;20031;-88
2021/10/27 16:50:12;;;;;;;5.57;5.35;;;17.20;66.40;;;;;;4972494;28;20034;-90
2021/10/27 16:52:38;;;;;;;5.43;5.13;;;17.20;66.60;;;;;;4970920;28;20058;-87
2021/10/27 16:55:06;;;;;;;5.10;4.90;;;17.10;66.60;;;;;;4971012;28;20058;-87
2021/10/27 16:57:32;;;;;;;5.47;5.18;;;17.10;67.50;;;;;;4973003;28;20487;-87
2021/10/27 16:59:58;;;;;;;5.20;5.00;;;17.00;66.80;;;;;;4973652;28;20026;-89
2021/10/27 17:02:24;;;;;;;4.93;4.72;;;17.00;66.90;;;;;;4977823;28;20045;-89
2021/10/27 17:04:50;;;;;;;5.50;5.20;;;16.90;66.90;;;;;;4976264;28;20043;-89
2021/10/27 17:07:16;;;;;;;5.00;4.80;;;16.90;67.10;;;;;;4974243;28;20030;-89
2021/10/27 17:09:43;;;;;;;4.95;4.75;;;16.80;67.20;;;;;;4970750;28;20502;-86
2021/10/27 17:12:09;;;;;;;5.20;5.00;;;16.80;67.30;;;;;;4975106;28;20026;-93
2021/10/27 17:14:35;;;;;;;5.60;5.30;;;16.80;67.40;;;;;;4974128;28;20042;-91
2021/10/27 17:17:02;;;;;;;6.20;5.80;;;16.70;67.60;;;;;;4971299;28;20061;-86
2021/10/27 17:19:29;;;;;;;5.75;5.45;;;16.60;67.60;;;;;;4970788;28;20026;-82
2021/10/27 17:21:55;;;;;;;5.20;5.00;;;16.60;67.80;;;;;;4971070;28;20035;-86
2021/10/27 17:24:22;;;;;;;5.00;4.80;;;16.50;67.90;;;;;;4976281;28;20158;-85
2021/10/27 17:26:48;;;;;;;5.32;5.07;;;16.40;68.00;;;;;;4954784;28;20051;-84
2021/10/27 17:29:14;;;;;;;5.40;5.00;;;16.40;68.20;;;;;;4976355;28;20050;-91
2021/10/27 17:31:40;;;;;;;5.38;5.07;;;16.30;68.20;;;;;;4967232;28;20515;-86
2021/10/27 17:34:06;;;;;;;5.07;4.88;;;16.30;68.40;;;;;;4972397;28;20403;-84
2021/10/27 17:36:33;;;;;;;5.68;5.35;;;16.20;68.50;;;;;;4968769;28;20027;-84
2021/10/27 17:38:59;;;;;;;5.40;5.10;;;16.10;68.50;;;;;;4977483;28;20038;-82
2021/10/27 17:41:27;;;;;;;5.47;5.10;;;16.10;68.70;;;;;;4952056;28;20399;-85
2021/10/27 17:43:54;;;;;;;5.60;5.35;;;16.00;68.70;;;;;;4972034;28;20042;-89
2021/10/27 17:46:24;;;;;;;6.32;6.03;;;16.00;68.80;;;;;;4968600;28;20066;-86
2021/10/27 17:49:01;;;;;;;5.35;5.15;;;16.00;68.90;;;;;;4966355;28;20499;-87
2021/10/27 17:51:29;;;;;;;5.70;5.40;;;15.90;69.00;;;;;;4977280;28;20517;-85
2021/10/27 17:59:24;;;;;;;5.20;4.88;;;15.70;69.30;;;;;;4987628;28;20057;-83
2021/10/27 18:01:50;;;;;;;4.90;4.70;;;15.60;69.30;;;;;;4976468;28;20223;-83
2021/10/27 18:04:17;;;;;;;5.53;5.22;;;15.60;69.50;;;;;;4975621;28;20042;-83
2021/10/27 18:06:44;;;;;;;4.82;4.63;;;15.60;69.60;;;;;;4975791;28;20399;-86
2021/10/27 18:09:13;;;;;;;4.88;4.63;;;15.50;69.60;;;;;;4976600;28;20043;-87
2021/10/27 18:11:41;;;;;;;5.05;4.75;;;15.50;69.80;;;;;;4978644;28;20026;-84
2021/10/27 18:14:17;;;;;;;7.38;4.93;;;15.50;69.80;;;;;;4979318;28;20047;-84